Time;durP1;ratioP1;P1;durP2;ratioP2;P2;SDS_P1;SDS_P2;PMS_P1;PMS_P2;Temp;Humidity;BMP_temperature;BMP_pressure;BME280_temperature;BME280_humidity;BME280_pressure;Samples;Min_cycle;Max_cycle;Signal;HPM_P1;HPM_P2
2023/07/25 00:00:31;;;;;;;8.82;4.30;;;;;;;14.12;100.00;96418.16;5047295;28;20398;-72
2023/07/25 00:02:58;;;;;;;11.90;4.32;;;;;;;14.13;100.00;96420.53;5047207;28;20407;-73
2023/07/25 00:05:24;;;;;;;10.10;4.30;;;;;;;14.11;100.00;96420.03;5055124;28;20419;-73
2023/07/25 00:07:50;;;;;;;6.97;4.25;;;;;;;14.18;100.00;96427.63;5055466;28;20810;-73
2023/07/25 00:10:18;;;;;;;6.82;4.03;;;;;;;14.15;100.00;96426.31;5055425;28;20463;-73
2023/07/25 00:12:45;;;;;;;13.40;4.78;;;;;;;14.15;100.00;96412.22;5055434;28;20433;-73
2023/07/25 00:15:11;;;;;;;13.13;4.45;;;;;;;14.15;100.00;96406.91;5036869;28;20406;-73
2023/07/25 00:17:39;;;;;;;7.05;4.53;;;;;;;14.17;100.00;96404.75;5048930;28;20761;-73
2023/07/25 00:20:08;;;;;;;8.10;4.25;;;;;;;14.22;100.00;96405.41;5051785;28;20836;-73
2023/07/25 00:22:34;;;;;;;8.07;4.15;;;;;;;14.26;100.00;96410.94;5043467;28;20411;-73
2023/07/25 00:25:00;;;;;;;13.82;5.13;;;;;;;14.24;100.00;96413.09;5043954;28;20517;-73
2023/07/25 00:27:26;;;;;;;6.17;4.03;;;;;;;14.21;100.00;96409.16;5046586;28;20417;-73
2023/07/25 00:29:52;;;;;;;8.43;4.57;;;;;;;14.19;100.00;96405.25;5054682;28;20417;-73
2023/07/25 00:32:19;;;;;;;11.10;4.35;;;;;;;14.23;100.00;96396.34;5054799;28;20405;-73
2023/07/25 00:34:49;;;;;;;7.93;4.05;;;;;;;14.23;100.00;96385.69;5048059;28;20406;-73
2023/07/25 00:37:15;;;;;;;10.07;4.55;;;;;;;14.22;100.00;96372.69;5051042;28;20403;-73
2023/07/25 00:39:42;;;;;;;13.23;5.10;;;;;;;14.13;100.00;96369.97;5034915;28;20433;-73
2023/07/25 00:42:08;;;;;;;9.07;4.40;;;;;;;14.21;100.00;96371.91;5036841;28;20407;-73
2023/07/25 00:44:34;;;;;;;7.67;4.27;;;;;;;14.23;100.00;96374.25;5049037;28;20411;-73
2023/07/25 00:47:01;;;;;;;13.32;4.18;;;;;;;14.25;100.00;96378.22;5035487;28;20418;-73
2023/07/25 00:49:29;;;;;;;10.90;4.47;;;;;;;14.14;100.00;96378.72;5054261;28;20902;-73
2023/07/25 00:51:57;;;;;;;8.32;4.13;;;;;;;14.10;100.00;96381.19;5054587;28;20405;-73
2023/07/25 00:54:23;;;;;;;7.25;4.80;;;;;;;14.15;100.00;96367.78;5054043;28;20752;-73
2023/07/25 00:56:49;;;;;;;8.77;4.60;;;;;;;14.15;100.00;96364.31;5045860;28;20398;-73
2023/07/25 00:59:15;;;;;;;8.27;4.10;;;;;;;14.24;100.00;96370.53;5045948;28;20393;-73
2023/07/25 01:01:42;;;;;;;7.70;4.17;;;;;;;14.20;100.00;96361.56;5054353;28;20398;-73
2023/07/25 01:04:08;;;;;;;10.18;4.90;;;;;;;14.20;100.00;96364.22;5053824;28;20546;-73
2023/07/25 01:06:36;;;;;;;10.77;4.10;;;;;;;14.14;100.00;96357.41;5045619;28;20410;-73
2023/07/25 01:09:03;;;;;;;5.82;3.97;;;;;;;14.18;100.00;96353.09;5036273;28;20409;-73
2023/07/25 01:11:30;;;;;;;9.05;4.30;;;;;;;14.12;100.00;96352.41;5036047;28;20929;-73
2023/07/25 01:13:56;;;;;;;10.83;4.80;;;;;;;14.13;100.00;96354.00;5035669;28;20417;-73
2023/07/25 01:16:24;;;;;;;10.15;4.53;;;;;;;14.15;100.00;96357.13;5053611;28;20892;-73
2023/07/25 01:18:51;;;;;;;7.03;4.25;;;;;;;14.20;100.00;96359.69;5053730;28;20488;-73
2023/07/25 01:21:18;;;;;;;11.40;4.35;;;;;;;14.26;100.00;96357.72;5053261;28;20407;-73
2023/07/25 01:23:45;;;;;;;6.28;4.03;;;;;;;14.27;100.00;96353.97;5053419;28;20408;-73
2023/07/25 01:26:13;;;;;;;10.60;4.13;;;;;;;14.28;100.00;96358.97;5035335;28;20504;-73
2023/07/25 01:28:39;;;;;;;8.53;4.20;;;;;;;14.28;100.00;96347.56;5052902;28;20485;-73
2023/07/25 01:31:05;;;;;;;7.30;4.00;;;;;;;14.29;100.00;96347.22;5052911;28;20512;-73
2023/07/25 01:33:31;;;;;;;8.25;4.03;;;;;;;14.41;100.00;96346.75;5048439;28;20410;-73
2023/07/25 01:36:00;;;;;;;6.13;3.90;;;;;;;14.33;100.00;96336.78;5049733;28;20415;-73
2023/07/25 01:38:27;;;;;;;11.85;4.05;;;;;;;14.32;100.00;96337.88;5052936;28;20401;-73
2023/07/25 01:40:53;;;;;;;10.95;4.45;;;;;;;14.36;100.00;96324.75;5053537;28;20488;-73
2023/07/25 01:43:21;;;;;;;8.10;4.20;;;;;;;14.42;100.00;96316.38;5035168;28;20821;-73
2023/07/25 01:45:47;;;;;;;7.72;4.03;;;;;;;14.39;100.00;96314.31;5052762;28;20445;-71
2023/07/25 01:48:13;;;;;;;6.57;4.15;;;;;;;14.39;100.00;96316.19;5052758;28;20411;-73
2023/07/25 01:50:39;;;;;;;7.57;4.65;;;;;;;14.47;100.00;96310.16;5044435;28;20476;-73
2023/07/25 01:53:05;;;;;;;9.23;4.03;;;;;;;14.40;100.00;96299.13;5053104;28;20393;-73
2023/07/25 01:55:32;;;;;;;5.40;4.17;;;;;;;14.38;100.00;96291.44;5052665;28;20468;-73
2023/07/25 01:57:58;;;;;;;7.88;4.30;;;;;;;14.35;100.00;96292.03;5044771;28;20443;-72
2023/07/25 02:00:25;;;;;;;8.32;4.10;;;;;;;14.35;100.00;96300.00;5040731;28;20407;-73
2023/07/25 02:02:52;;;;;;;7.93;4.25;;;;;;;14.38;100.00;96295.94;5048697;28;20450;-73
2023/07/25 02:05:18;;;;;;;10.45;3.88;;;;;;;14.33;100.00;96302.19;5052172;28;20413;-74
2023/07/25 02:07:44;;;;;;;9.68;4.75;;;;;;;14.44;100.00;96297.41;5052709;28;20463;-73
2023/07/25 02:10:10;;;;;;;11.70;4.53;;;;;;;14.49;100.00;96292.00;5044446;28;20437;-73
2023/07/25 02:12:36;;;;;;;7.68;4.55;;;;;;;14.49;100.00;96284.00;5052734;28;20767;-73
2023/07/25 02:15:03;;;;;;;7.72;4.20;;;;;;;14.47;100.00;96281.66;5052773;28;20397;-72
2023/07/25 02:17:31;;;;;;;8.13;4.70;;;;;;;14.42;100.00;96268.47;5044012;28;20417;-73
2023/07/25 02:19:57;;;;;;;6.00;3.95;;;;;;;14.41;100.00;96276.75;5052451;28;20433;-72
2023/07/25 02:22:23;;;;;;;7.63;4.22;;;;;;;14.41;100.00;96274.06;5048760;28;20415;-73
2023/07/25 02:24:49;;;;;;;5.57;4.40;;;;;;;14.38;100.00;96280.78;5048383;28;20413;-73
2023/07/25 02:27:15;;;;;;;8.82;4.30;;;;;;;14.37;100.00;96268.53;5051883;28;20423;-73
2023/07/25 02:29:42;;;;;;;8.32;4.78;;;;;;;14.37;100.00;96257.09;5045851;28;20411;-73
2023/07/25 02:32:08;;;;;;;10.27;4.65;;;;;;;14.34;100.00;96250.50;5050570;28;20409;-73
2023/07/25 02:34:36;;;;;;;9.10;4.77;;;;;;;14.33;100.00;96255.06;5052017;28;20913;-73
2023/07/25 02:37:02;;;;;;;7.10;4.80;;;;;;;14.37;100.00;96252.56;5043862;28;20404;-73
2023/07/25 02:39:28;;;;;;;8.60;4.32;;;;;;;14.34;100.00;96239.88;5051654;28;20397;-73
2023/07/25 02:41:54;;;;;;;8.73;4.47;;;;;;;14.34;100.00;96240.66;5052405;28;20406;-73
2023/07/25 02:44:21;;;;;;;7.55;4.57;;;;;;;14.37;100.00;96228.59;5048639;28;20414;-73
2023/07/25 02:46:47;;;;;;;6.97;4.07;;;;;;;14.31;100.00;96243.13;5040785;28;20430;-73
2023/07/25 02:49:13;;;;;;;7.20;4.55;;;;;;;14.31;100.00;96253.78;5032639;28;20893;-73
2023/07/25 02:51:41;;;;;;;7.37;4.30;;;;;;;14.28;100.00;96257.06;5038667;28;20458;-73
2023/07/25 02:54:07;;;;;;;9.45;4.65;;;;;;;14.30;100.00;96268.94;5050603;28;20413;-73
2023/07/25 02:56:33;;;;;;;5.20;3.90;;;;;;;14.36;100.00;96266.94;5032583;28;20403;-73
2023/07/25 02:58:59;;;;;;;7.53;4.50;;;;;;;14.39;100.00;96255.75;5042111;28;20470;-73
2023/07/25 03:01:25;;;;;;;7.78;4.10;;;;;;;14.41;100.00;96258.91;5052675;28;20405;-73
2023/07/25 03:03:51;;;;;;;8.93;4.30;;;;;;;14.45;100.00;96261.72;5036390;28;20399;-73
2023/07/25 03:06:18;;;;;;;7.40;4.07;;;;;;;14.51;100.00;96247.97;5035568;28;20934;-71
2023/07/25 03:08:45;;;;;;;8.27;4.40;;;;;;;14.50;100.00;96258.97;5034937;28;20527;-72
2023/07/25 03:11:11;;;;;;;7.97;4.90;;;;;;;14.56;100.00;96250.53;5052512;28;20401;-72
2023/07/25 03:13:38;;;;;;;7.43;4.78;;;;;;;14.59;100.00;96236.59;5052666;28;20405;-73
2023/07/25 03:16:04;;;;;;;7.75;4.68;;;;;;;14.66;100.00;96236.16;5032986;28;20537;-73
2023/07/25 03:18:31;;;;;;;6.30;4.47;;;;;;;14.70;100.00;96221.16;5052615;28;20405;-73
2023/07/25 03:20:57;;;;;;;21.47;4.60;;;;;;;14.70;100.00;96221.94;5052212;28;20467;-73
2023/07/25 03:23:23;;;;;;;7.50;4.28;;;;;;;14.65;100.00;96222.09;5052536;28;20467;-72
2023/07/25 03:25:51;;;;;;;9.98;4.50;;;;;;;14.67;100.00;96225.22;5052357;28;20417;-72
2023/07/25 03:28:17;;;;;;;8.82;4.18;;;;;;;14.62;100.00;96232.56;5040381;28;20935;-72
2023/07/25 03:30:43;;;;;;;6.55;4.35;;;;;;;14.67;100.00;96246.53;5038832;28;20439;-71
2023/07/25 03:33:09;;;;;;;6.40;4.30;;;;;;;14.64;100.00;96265.00;5050064;28;20425;-73
2023/07/25 03:35:36;;;;;;;10.65;4.70;;;;;;;14.80;100.00;96260.09;5037512;28;20412;-73
2023/07/25 03:38:02;;;;;;;8.70;4.53;;;;;;;14.75;100.00;96263.66;5051737;28;20393;-73
2023/07/25 03:40:28;;;;;;;6.30;4.32;;;;;;;14.78;100.00;96252.41;5051898;28;20398;-73
2023/07/25 03:42:55;;;;;;;8.23;4.32;;;;;;;14.84;100.00;96263.69;5052057;28;20954;-71
2023/07/25 03:45:22;;;;;;;8.05;4.22;;;;;;;14.84;100.00;96266.38;5034169;28;20417;-73
2023/07/25 03:47:48;;;;;;;7.40;4.20;;;;;;;14.85;100.00;96259.94;5055218;28;20415;-73
2023/07/25 03:50:14;;;;;;;7.50;4.60;;;;;;;14.85;100.00;96259.94;5051504;28;20451;-73
2023/07/25 03:52:40;;;;;;;8.80;4.20;;;;;;;14.97;100.00;96266.28;5051696;28;20398;-73
2023/07/25 03:55:07;;;;;;;9.43;4.53;;;;;;;14.95;100.00;96273.81;5052046;28;20466;-73
2023/07/25 03:57:34;;;;;;;10.88;4.53;;;;;;;14.92;100.00;96279.75;5049328;28;20488;-73
2023/07/25 04:00:03;;;;;;;9.18;4.50;;;;;;;14.93;100.00;96267.19;5046011;28;20911;-73
2023/07/25 04:02:29;;;;;;;8.82;4.07;;;;;;;14.90;100.00;96265.94;5054962;28;20416;-72
2023/07/25 04:04:55;;;;;;;10.55;3.90;;;;;;;14.87;100.00;96269.22;5055779;28;20926;-73
2023/07/25 04:07:21;;;;;;;7.70;4.70;;;;;;;14.86;100.00;96259.66;5035254;28;20425;-73
2023/07/25 04:09:48;;;;;;;6.68;3.85;;;;;;;14.88;100.00;96248.69;5063498;28;20786;-74
2023/07/25 04:12:14;;;;;;;7.63;3.90;;;;;;;14.88;100.00;96257.47;5062828;28;20595;-73
2023/07/25 04:14:41;;;;;;;5.07;3.83;;;;;;;14.89;100.00;96255.56;5062015;28;20419;-74
2023/07/25 04:17:08;;;;;;;9.83;3.90;;;;;;;14.91;100.00;96237.41;5052750;28;20402;-73
2023/07/25 04:19:34;;;;;;;9.75;3.97;;;;;;;14.89;100.00;96245.69;5055077;28;20397;-73
2023/07/25 04:22:01;;;;;;;6.53;4.20;;;;;;;14.93;100.00;96249.34;5047047;28;20413;-73
2023/07/25 04:24:27;;;;;;;6.15;4.00;;;;;;;14.92;100.00;96258.41;5062543;28;20409;-73
2023/07/25 04:26:53;;;;;;;9.40;4.07;;;;;;;14.91;100.00;96264.06;5036945;28;20447;-72
2023/07/25 04:29:19;;;;;;;9.18;4.05;;;;;;;14.91;100.00;96258.72;5036969;28;20756;-73
2023/07/25 04:31:45;;;;;;;7.10;4.00;;;;;;;14.94;100.00;96266.91;5055027;28;20401;-73
2023/07/25 04:34:13;;;;;;;8.37;4.47;;;;;;;15.01;100.00;96267.25;5054851;28;20398;-73
2023/07/25 04:36:39;;;;;;;7.18;4.00;;;;;;;15.00;100.00;96276.34;5054807;28;20782;-73
2023/07/25 04:39:05;;;;;;;8.98;4.63;;;;;;;15.17;100.00;96269.53;5035112;28;20411;-73
2023/07/25 04:41:32;;;;;;;7.43;4.30;;;;;;;15.16;100.00;96265.28;5054167;28;20398;-73
2023/07/25 04:43:58;;;;;;;10.23;4.30;;;;;;;15.08;100.00;96256.16;5054291;28;20428;-73
2023/07/25 04:46:24;;;;;;;6.93;4.32;;;;;;;15.05;100.00;96267.41;5051863;28;20421;-73
2023/07/25 04:48:50;;;;;;;7.43;4.03;;;;;;;15.09;100.00;96271.06;5054330;28;20404;-74
2023/07/25 04:51:18;;;;;;;7.97;4.32;;;;;;;15.08;100.00;96275.59;5052221;28;20919;-73
2023/07/25 04:53:44;;;;;;;6.65;4.25;;;;;;;15.09;100.00;96271.06;5052785;28;20408;-73
2023/07/25 04:56:10;;;;;;;7.43;4.43;;;;;;;15.09;100.00;96277.16;5044695;28;20478;-73
2023/07/25 04:58:41;;;;;;;9.30;5.00;;;;;;;15.11;100.00;96279.50;5053054;28;20636;-73
2023/07/25 05:01:07;;;;;;;6.30;3.87;;;;;;;15.11;100.00;96277.63;5042891;28;20965;-73
2023/07/25 05:03:33;;;;;;;7.15;3.80;;;;;;;15.13;100.00;96274.66;5047498;28;20477;-73
2023/07/25 05:06:00;;;;;;;9.27;4.07;;;;;;;15.13;100.00;96271.22;5051235;28;20409;-72
2023/07/25 05:08:27;;;;;;;9.55;4.18;;;;;;;15.14;100.00;96270.13;5053130;28;20405;-72
2023/07/25 05:10:54;;;;;;;6.65;3.92;;;;;;;15.06;100.00;96267.09;5054234;28;20409;-72
2023/07/25 05:13:20;;;;;;;7.20;3.90;;;;;;;15.01;100.00;96280.56;5052363;28;20500;-72
2023/07/25 05:15:46;;;;;;;7.85;4.00;;;;;;;15.06;100.00;96285.78;5034783;28;20414;-72
2023/07/25 05:18:13;;;;;;;9.57;4.20;;;;;;;15.05;100.00;96286.84;5050950;28;20428;-72
2023/07/25 05:20:39;;;;;;;12.35;4.65;;;;;;;15.02;100.00;96289.34;5049982;28;20496;-72
2023/07/25 05:23:06;;;;;;;12.30;4.82;;;;;;;15.02;100.00;96282.16;5053179;28;20891;-72
2023/07/25 05:25:33;;;;;;;6.60;4.00;;;;;;;15.07;100.00;96287.34;5060386;28;21018;-73
2023/07/25 05:28:00;;;;;;;9.20;4.47;;;;;;;15.07;100.00;96287.34;5048677;28;20397;-73
2023/07/25 05:30:28;;;;;;;6.63;4.30;;;;;;;15.14;100.00;96284.22;5049048;28;20509;-73
2023/07/25 05:32:54;;;;;;;7.67;4.00;;;;;;;15.17;100.00;96288.97;5035249;28;20405;-73
2023/07/25 05:35:21;;;;;;;8.13;4.13;;;;;;;15.22;100.00;96286.16;5029597;28;20471;-74
2023/07/25 05:37:47;;;;;;;8.75;3.95;;;;;;;15.24;100.00;96291.19;5041786;28;20485;-73
2023/07/25 05:40:13;;;;;;;8.75;4.40;;;;;;;15.31;100.00;96283.53;5044228;28;20478;-74
2023/07/25 05:42:41;;;;;;;8.45;4.30;;;;;;;15.33;100.00;96292.81;5048799;28;20405;-73
2023/07/25 05:45:09;;;;;;;9.43;4.20;;;;;;;15.41;100.00;96288.59;5035417;28;20563;-73
2023/07/25 05:47:35;;;;;;;10.32;4.70;;;;;;;15.41;100.00;96293.94;5044842;28;20805;-73
2023/07/25 05:50:01;;;;;;;7.72;4.70;;;;;;;15.42;100.00;96295.47;5030159;28;20415;-73
2023/07/25 05:52:28;;;;;;;13.65;4.85;;;;;;;15.40;100.00;96295.03;5042736;28;20950;-74
2023/07/25 05:54:54;;;;;;;9.43;4.87;;;;;;;15.39;100.00;96299.56;5048678;28;20437;-73
2023/07/25 05:57:21;;;;;;;8.50;5.05;;;;;;;15.40;100.00;96293.16;5050856;28;20486;-73
2023/07/25 05:59:48;;;;;;;16.80;5.30;;;;;;;15.36;100.00;96278.84;5054392;28;20416;-73
2023/07/25 06:02:16;;;;;;;23.02;6.53;;;;;;;15.26;100.00;96265.78;5043587;28;20423;-73
2023/07/25 06:04:45;;;;;;;15.53;6.07;;;;;;;15.31;100.00;96260.31;5046057;28;20399;-73
2023/07/25 06:07:12;;;;;;;13.75;6.35;;;;;;;15.36;100.00;96270.84;5043528;28;20752;-73
2023/07/25 06:09:40;;;;;;;15.02;5.82;;;;;;;15.38;100.00;96281.19;5052184;28;20472;-73
2023/07/25 06:12:09;;;;;;;15.50;6.13;;;;;;;15.28;100.00;96286.81;5043470;28;20496;-73
2023/07/25 06:14:36;;;;;;;8.88;5.70;;;;;;;15.26;100.00;96281.78;5051928;28;20736;-73
2023/07/25 06:17:04;;;;;;;11.50;5.32;;;;;;;15.28;100.00;96287.59;5037421;28;20421;-73
2023/07/25 06:19:30;;;;;;;10.15;5.57;;;;;;;15.26;100.00;96292.44;5062667;28;20812;-74
2023/07/25 06:21:56;;;;;;;11.20;5.80;;;;;;;15.39;100.00;96288.91;5061229;28;20433;-73
2023/07/25 06:24:22;;;;;;;14.60;6.07;;;;;;;15.43;100.00;96294.38;5059798;28;20401;-73
2023/07/25 06:26:49;;;;;;;13.07;5.88;;;;;;;15.41;100.00;96289.34;5044531;28;20504;-73
2023/07/25 06:29:15;;;;;;;15.10;6.00;;;;;;;15.42;100.00;96290.16;5047417;28;20472;-74
2023/07/25 06:31:41;;;;;;;10.30;5.45;;;;;;;15.38;100.00;96292.66;5048635;28;20405;-74
2023/07/25 06:34:09;;;;;;;11.88;5.88;;;;;;;15.47;100.00;96282.03;5050364;28;20976;-74
2023/07/25 06:36:35;;;;;;;7.97;5.60;;;;;;;15.43;100.00;96286.38;5050152;28;20401;-73
2023/07/25 06:39:02;;;;;;;8.82;4.93;;;;;;;15.37;100.00;96293.75;5048271;28;20401;-72
2023/07/25 06:41:28;;;;;;;9.30;5.25;;;;;;;15.37;100.00;96293.75;5050238;28;20401;-73
2023/07/25 06:43:55;;;;;;;8.77;5.35;;;;;;;15.36;100.00;96289.50;5050575;28;20402;-73
2023/07/25 06:46:24;;;;;;;9.52;5.20;;;;;;;15.22;100.00;96296.81;5050466;28;20764;-73
2023/07/25 06:48:50;;;;;;;22.77;5.95;;;;;;;15.17;100.00;96299.63;5052890;28;20495;-75
2023/07/25 06:51:20;;;;;;;16.13;6.10;;;;;;;15.16;100.00;96283.94;5059297;28;20460;-74
2023/07/25 06:53:46;;;;;;;13.10;6.60;;;;;;;15.19;100.00;96286.75;5038955;28;20407;-72
2023/07/25 06:56:12;;;;;;;13.50;6.20;;;;;;;15.28;100.00;96292.91;5039896;28;20390;-73
2023/07/25 06:58:38;;;;;;;20.45;7.03;;;;;;;15.25;100.00;96282.09;5050397;28;20492;-72
2023/07/25 07:01:05;;;;;;;14.07;6.75;;;;;;;15.27;100.00;96286.00;5047156;28;20421;-73
2023/07/25 07:03:31;;;;;;;19.30;6.53;;;;;;;15.16;100.00;96286.59;5044468;28;20448;-74
2023/07/25 07:05:57;;;;;;;15.00;6.43;;;;;;;15.28;100.00;96286.81;5048310;28;20504;-74
2023/07/25 07:08:25;;;;;;;18.37;7.60;;;;;;;15.26;100.00;96287.09;5049137;28;20468;-73
2023/07/25 07:10:55;;;;;;;23.42;7.35;;;;;;;15.29;100.00;96281.16;5062659;28;20893;-74
2023/07/25 07:13:22;;;;;;;14.25;6.28;;;;;;;15.15;100.00;96280.47;5049340;28;20403;-74
2023/07/25 07:15:49;;;;;;;14.90;6.53;;;;;;;15.36;100.00;96273.50;5059404;28;20392;-74
2023/07/25 07:18:16;;;;;;;17.48;6.97;;;;;;;15.41;100.00;96276.03;5050934;28;20432;-73
2023/07/25 07:20:46;;;;;;;14.35;7.07;;;;;;;15.51;100.00;96264.31;5044274;28;20395;-74
2023/07/25 07:23:12;;;;;;;15.73;7.00;;;;;;;15.48;100.00;96254.28;5049146;28;20403;-74
2023/07/25 07:25:40;;;;;;;15.68;6.97;;;;;;;15.45;100.00;96250.31;5052880;28;20413;-74
2023/07/25 07:28:06;;;;;;;16.30;7.05;;;;;;;15.40;100.00;96244.34;5055446;28;20424;-74
2023/07/25 07:30:32;;;;;;;14.68;6.30;;;;;;;15.44;100.00;96248.75;5053515;28;20405;-74
2023/07/25 07:32:59;;;;;;;16.03;6.47;;;;;;;15.29;100.00;96256.38;5055315;28;20401;-74
2023/07/25 07:35:25;;;;;;;14.80;6.22;;;;;;;15.36;100.00;96254.06;5056121;28;20393;-74
2023/07/25 07:37:51;;;;;;;12.40;5.20;;;;;;;15.33;100.00;96252.81;5054712;28;20444;-74
2023/07/25 07:40:18;;;;;;;14.93;5.75;;;;;;;15.27;100.00;96242.56;5056514;28;20397;-74
2023/07/25 07:42:45;;;;;;;13.73;5.50;;;;;;;15.36;100.00;96243.38;5056385;28;20401;-74
2023/07/25 07:45:11;;;;;;;10.37;5.03;;;;;;;15.31;100.00;96239.00;5057263;28;20488;-74
2023/07/25 07:47:39;;;;;;;14.13;5.97;;;;;;;15.72;100.00;96241.31;5053562;28;20988;-74
2023/07/25 07:50:08;;;;;;;8.90;4.72;;;;;;;15.78;100.00;96236.63;5056389;28;20509;-74
2023/07/25 07:52:41;;;;;;;9.68;4.80;;;;;;;15.94;100.00;96240.38;5058201;28;20413;-78
2023/07/25 07:55:09;;;;;;;10.52;4.43;;;;;;;15.84;100.00;96243.38;5061912;28;20407;-74
2023/07/25 07:57:39;;;;;;;6.65;4.05;;;;;;;16.12;100.00;96241.19;5060200;28;20448;-74
2023/07/25 08:00:08;;;;;;;9.93;4.22;;;;;;;16.51;100.00;96243.69;5059969;28;20898;-74
2023/07/25 08:02:34;;;;;;;9.45;4.38;;;;;;;16.79;100.00;96240.69;5061683;28;20400;-74
2023/07/25 08:05:01;;;;;;;8.27;3.60;;;;;;;16.71;100.00;96246.81;5065807;28;20395;-74
2023/07/25 08:07:27;;;;;;;8.13;3.28;;;;;;;16.72;100.00;96251.06;5041796;28;20410;-74
2023/07/25 08:09:54;;;;;;;7.00;3.15;;;;;;;16.60;100.00;96255.19;5029831;28;20502;-74
2023/07/25 08:12:20;;;;;;;5.80;2.78;;;;;;;16.52;100.00;96255.97;5047464;28;20496;-75
2023/07/25 08:14:46;;;;;;;10.10;3.88;;;;;;;16.60;100.00;96262.38;5054839;28;20397;-76
2023/07/25 08:17:15;;;;;;;6.87;3.40;;;;;;;16.73;100.00;96253.44;5053346;28;20401;-74
2023/07/25 08:19:41;;;;;;;7.68;3.42;;;;;;;16.73;100.00;96253.44;5052904;28;20398;-74
2023/07/25 08:22:10;;;;;;;6.30;3.00;;;;;;;16.63;100.00;96241.19;5053298;28;20496;-74
2023/07/25 08:24:36;;;;;;;8.00;3.95;;;;;;;16.82;100.00;96237.38;5065659;28;20492;-75
2023/07/25 08:27:03;;;;;;;7.25;3.45;;;;;;;16.74;100.00;96246.19;5055402;28;20467;-74
2023/07/25 08:29:29;;;;;;;6.73;3.83;;;;;;;16.62;100.00;96246.84;5053588;28;20401;-75
2023/07/25 08:31:56;;;;;;;9.55;3.80;;;;;;;16.57;100.00;96239.75;5053736;28;20909;-75
2023/07/25 08:34:23;;;;;;;14.20;4.68;;;;;;;16.76;100.00;96246.69;5050931;28;21519;-75
2023/07/25 08:36:50;;;;;;;14.77;4.45;;;;;;;16.93;100.00;96236.72;5060349;28;20394;-76
2023/07/25 08:39:16;;;;;;;9.52;4.70;;;;;;;16.98;100.00;96244.56;5044872;28;20766;-77
2023/07/25 08:41:46;;;;;;;11.73;5.13;;;;;;;17.39;100.00;96249.28;5052201;28;20408;-74
2023/07/25 08:44:18;;;;;;;9.52;5.18;;;;;;;17.66;100.00;96242.72;5049117;28;20400;-75
2023/07/25 08:46:49;;;;;;;9.13;4.18;;;;;;;17.76;100.00;96241.53;5052298;28;20415;-74
2023/07/25 08:49:16;;;;;;;7.90;4.03;;;;;;;17.48;100.00;96240.41;5044843;28;20444;-75
2023/07/25 08:51:47;;;;;;;6.00;3.10;;;;;;;17.15;100.00;96235.69;5039235;28;20395;-77
2023/07/25 08:54:21;;;;;;;9.70;4.22;;;;;;;17.13;100.00;96234.47;5044883;28;20405;-76
2023/07/25 08:56:48;;;;;;;7.40;3.75;;;;;;;17.19;100.00;96233.94;5051975;28;20398;-76
2023/07/25 08:59:15;;;;;;;6.57;3.20;;;;;;;17.08;100.00;96231.94;5054647;28;20402;-75
2023/07/25 09:01:42;;;;;;;5.25;3.17;;;;;;;17.03;100.00;96228.34;5052544;28;20396;-76
2023/07/25 09:04:10;;;;;;;6.18;3.60;;;;;;;17.08;100.00;96242.63;5052758;28;20741;-76
2023/07/25 09:06:36;;;;;;;11.60;3.72;;;;;;;17.04;100.00;96242.50;5053628;28;20906;-75
2023/07/25 09:09:05;;;;;;;7.00;4.07;;;;;;;17.13;100.00;96242.47;5052798;28;20406;-75
2023/07/25 09:11:33;;;;;;;8.20;3.63;;;;;;;17.16;100.00;96233.78;5047948;28;20418;-76
2023/07/25 09:14:00;;;;;;;6.20;2.97;;;;;;;16.95;100.00;96242.53;5046619;28;20402;-75
2023/07/25 09:16:26;;;;;;;7.40;2.97;;;;;;;16.73;100.00;96234.72;5052685;28;20484;-75
2023/07/25 09:18:52;;;;;;;6.72;3.40;;;;;;;16.77;100.00;96232.97;5052150;28;20768;-75
2023/07/25 09:21:19;;;;;;;8.43;3.08;;;;;;;16.87;100.00;96229.97;5052384;28;20394;-76
2023/07/25 09:23:51;;;;;;;7.47;3.38;;;;;;;17.16;100.00;96231.13;5053457;28;20885;-77
2023/07/25 09:26:22;;;;;;;7.53;3.22;;;;;;;17.52;100.00;96228.75;5051645;28;20467;-75
2023/07/25 09:28:50;;;;;;;8.40;2.92;;;;;;;17.66;100.00;96231.22;5052458;28;20401;-76
2023/07/25 09:31:17;;;;;;;6.25;2.70;;;;;;;18.12;100.00;96224.91;5051514;28;20957;-76
2023/07/25 09:33:47;;;;;;;7.18;2.85;;;;;;;18.28;100.00;96228.56;5052320;28;20405;-76
2023/07/25 09:36:14;;;;;;;4.40;2.80;;;;;;;18.26;100.00;96227.34;5052316;28;20396;-76
2023/07/25 09:38:48;;;;;;;5.05;2.92;;;;;;;18.31;100.00;96222.56;5034817;28;20899;-76
2023/07/25 09:41:15;;;;;;;5.90;2.25;;;;;;;18.04;100.00;96218.50;5051066;28;20405;-76
2023/07/25 09:43:42;;;;;;;4.43;2.23;;;;;;;18.07;100.00;96214.41;5050116;28;20402;-75
2023/07/25 09:46:11;;;;;;;9.25;2.45;;;;;;;18.29;100.00;96224.00;5051044;28;20409;-74
2023/07/25 09:48:39;;;;;;;6.68;2.45;;;;;;;18.28;100.00;96217.84;5051124;28;20397;-75
2023/07/25 09:51:06;;;;;;;6.93;2.20;;;;;;;18.26;100.00;96219.31;5051503;28;20409;-74
2023/07/25 09:53:32;;;;;;;8.57;2.40;;;;;;;18.49;100.00;96223.19;5052363;28;20767;-75
2023/07/25 09:55:58;;;;;;;5.35;2.42;;;;;;;18.58;100.00;96221.22;5043290;28;20892;-75
2023/07/25 09:58:25;;;;;;;4.43;2.42;;;;;;;18.63;100.00;96215.66;5052500;28;20398;-76
2023/07/25 10:00:55;;;;;;;6.70;2.58;;;;;;;18.86;100.00;96216.06;5052005;28;20762;-76
2023/07/25 10:03:22;;;;;;;5.55;2.38;;;;;;;18.79;100.00;96213.16;5023822;28;20403;-75
2023/07/25 10:05:48;;;;;;;5.65;2.40;;;;;;;18.71;100.00;96222.84;5041486;28;20407;-75
2023/07/25 10:08:16;;;;;;;6.25;2.13;;;;;;;18.75;100.00;96210.34;5032841;28;20529;-75
2023/07/25 10:10:43;;;;;;;5.57;2.22;;;;;;;18.94;100.00;96201.78;5033171;28;20437;-74
2023/07/25 10:13:10;;;;;;;6.82;2.20;;;;;;;19.17;100.00;96202.91;5048296;28;20394;-74
2023/07/25 10:15:38;;;;;;;7.13;2.50;;;;;;;19.33;100.00;96211.06;5031233;28;20406;-74
2023/07/25 10:18:19;;;;;;;5.47;3.13;;;;;;;19.78;100.00;96202.09;5052633;28;20398;-73
2023/07/25 10:20:46;;;;;;;7.82;2.40;;;;;;;19.90;100.00;96204.78;5053099;28;20463;-75
2023/07/25 10:23:14;;;;;;;5.07;2.20;;;;;;;19.98;100.00;96203.88;5050751;28;20402;-75
2023/07/25 10:25:41;;;;;;;6.75;2.20;;;;;;;20.43;100.00;96196.34;5053105;28;20484;-77
2023/07/25 10:28:08;;;;;;;4.30;1.92;;;;;;;20.39;100.00;96200.06;5052550;28;20409;-74
2023/07/25 10:30:42;;;;;;;6.60;2.08;;;;;;;20.67;100.00;96202.75;5052213;28;20409;-74
2023/07/25 10:33:12;;;;;;;5.07;2.17;;;;;;;20.73;100.00;96196.75;5035254;28;20408;-74
2023/07/25 10:35:49;;;;;;;8.80;2.42;;;;;;;20.14;100.00;96210.09;5051214;28;20524;-74
2023/07/25 10:38:22;;;;;;;3.65;1.60;;;;;;;19.91;100.00;96217.09;5049637;28;20429;-73
2023/07/25 10:40:56;;;;;;;2.85;1.40;;;;;;;19.40;100.00;96218.56;5050743;28;20410;-73
2023/07/25 10:43:27;;;;;;;5.95;1.80;;;;;;;19.20;100.00;96236.31;5047741;28;20412;-73
2023/07/25 10:45:54;;;;;;;2.53;1.67;;;;;;;18.68;100.00;96223.50;5053171;28;21019;-74
2023/07/25 10:48:36;;;;;;;7.97;2.60;;;;;;;18.44;100.00;96224.16;5048894;28;20450;-73
2023/07/25 10:51:06;;;;;;;4.72;1.90;;;;;;;18.05;100.00;96221.97;5046596;28;20423;-74
2023/07/25 10:53:33;;;;;;;5.20;2.00;;;;;;;17.77;100.00;96219.81;5047677;28;20405;-74
2023/07/25 10:56:16;;;;;;;9.07;2.50;;;;;;;17.60;100.00;96214.53;5048532;28;20440;-74
2023/07/25 10:59:02;;;;;;;4.55;1.90;;;;;;;17.61;100.00;96212.63;5047774;28;21051;-74
2023/07/25 11:01:34;;;;;;;3.88;1.80;;;;;;;17.69;100.00;96195.78;5054655;28;20401;-74
2023/07/25 11:04:27;;;;;;;4.75;1.80;;;;;;;17.74;100.00;96199.03;5058226;28;20437;-75
2023/07/25 11:06:54;;;;;;;3.90;2.03;;;;;;;17.78;100.00;96202.66;5044287;28;20422;-74
2023/07/25 11:09:23;;;;;;;7.87;2.40;;;;;;;18.00;100.00;96203.44;5045852;28;20397;-75
2023/07/25 11:11:50;;;;;;;5.75;2.17;;;;;;;18.26;100.00;96209.38;5050961;28;20547;-75
2023/07/25 11:14:18;;;;;;;4.38;2.13;;;;;;;18.69;100.00;96200.94;5046915;28;20407;-75
2023/07/25 11:16:46;;;;;;;6.25;2.03;;;;;;;19.07;100.00;96195.31;5045029;28;20397;-75
2023/07/25 11:19:14;;;;;;;2.95;1.80;;;;;;;19.37;100.00;96195.88;5044354;28;20436;-75
2023/07/25 11:21:45;;;;;;;3.40;1.90;;;;;;;19.92;100.00;96189.13;5051631;28;20413;-74
2023/07/25 11:24:12;;;;;;;3.90;1.60;;;;;;;20.23;100.00;96189.22;5044275;28;20739;-75